KRWF

Details ICAO KRWF
Name REDWOOD FALLS MUNI
Region United States
Timezone America/Chicago (UTC-5.0)
Plans Departing 0
Arriving 3
Stats Elevation 1,023 ft / 312 m (AMSL)
Location 44.546964° -95.082078°
Runways 2
Magnetic Variation 1.682° E
Sunrise 2018-05-26 10:43:49 UTC / 2018-05-26 05:43:49 Local
Sunset 2018-05-27 01:53:52 UTC / 2018-05-26 20:53:52 Local
Advertisement - Login to hide

Runways

ID Width Length Bearing (true) Bearing (mag) Surface Threshold Offset Overrun Length
05 200 ft / 61 m 2,047 ft / 624 m 55.81° 54.13° Grass 325 ft / 99 m 0 ft / 0 m
12 100 ft / 30 m 3,996 ft / 1,218 m 127.73° 126.05° Asphalt 0 ft / 0 m 0 ft / 0 m
23 200 ft / 61 m 2,047 ft / 624 m 235.82° 234.14° Grass 175 ft / 53 m 0 ft / 0 m
30 100 ft / 30 m 3,996 ft / 1,218 m 307.74° 306.06° Asphalt 0 ft / 0 m 0 ft / 0 m

Map

Weather


0- 5 10 15 20 25 30 35+ Temperature / ° C

Clouds and Precipitation
Forecast for 2018-05-26 18:00 UTC. Updated an hour ago

Ground ~20,000 ft ~40,000 ft Winds

METAR

KRWF 261753Z AUTO 35008KT 10SM CLR 32/17 A2973 RMK AO2 SLP058 T03220167 10322 20178 58003

TAF

TAF KRWF 261727Z 2618/2718 28007KT P6SM SKC FM270300 VRB03KT P6SM SKC FM271700 19007KT P6SM SCT250

Frequencies

Recorded 126.57 MHz ASOS
Unicom 123.00 MHz CTAF/UNICOM
Warning: Do not use this data for real-world aviation or navigation. No guarantee of current accuracy is given.